Airfield :
LOGIN :

Register | Disclaimer

   EN    FR    IT 

 










Legend :    VFR   Marginal VFR   IFR   Intensive IFR   Very Intensive IFR
Visi :
Ceiling :
>= 8 km
>= 3000ft
5 to 8 km
1000 to 3000 ft
1500m to 5 km
500 to 1000 ft
800 to 1500m
200 to 500 ft
< 800m
< 200 ft
Symbols :   Thunderstorms  Fog  Heavy snow  Heavy precipitations  Wind > 20 kt
SIGMETs :     Misc.  Thunderstorms  Icing  Turbulence  Mountain Waves  Volcanic Ashes






- Airport Elevation : 390 ft
- IATA code : TMP


EFTP - Tampere-Pirkkala

CURRENT METAR :
  • 012350Z AUTO 22005KT 9999 OVC010 02/01 Q1024

EXPIRED METARs :
  • 012320Z AUTO 20004KT 9999 OVC010 02/01 Q1024
  • 012250Z AUTO 23005KT 9999 OVC010 02/01 Q1024
  • 012220Z AUTO 23005KT 9999 OVC011 02/01 Q1024
  • 012150Z AUTO 23005KT 9999 BKN006 OVC013 02/01 Q1024
  • 012120Z AUTO 22004KT 9999 OVC006 02/01 Q1023

TAF TAF EFTP
Valid from the 02 at 00:00 until the 03 at 00:00 UTC


012333Z 0200/0224 18003KT 9999 BKN010
TEMPO 0200/0221 2500 BR BKN004
PROB30 0203/0209 0400 FG VV001



MET'MAP, your aeronautical weather chart ! - Copyright ORBIFLY December 2007 - Disclaimer

ORBIFLY MET'MAP TEAM :

Programming & Development : Alexandra Zaïnal
Concept & original design : Baudouin d'Aumeries
Assistance for programming : Marc-Olivier Méhu
Technical & hardware support : Manuel Goepfert

Contact : metmap@orbifly.com




SOURCES & CREDITS :

   NOAA